createdAt,value
2022-11-29T00:01:07.554Z,5.30
2022-11-29T00:03:34.835Z,5.30
2022-11-29T00:06:10.092Z,5.30
2022-11-29T00:08:37.300Z,5.20
2022-11-29T00:11:09.488Z,5.20
2022-11-29T00:13:36.166Z,5.30
2022-11-29T00:16:04.609Z,5.20
2022-11-29T00:18:31.383Z,5.20
2022-11-29T00:20:58.116Z,5.20
2022-11-29T00:23:24.750Z,5.30
2022-11-29T00:25:51.506Z,5.30
2022-11-29T00:28:18.244Z,5.30
2022-11-29T00:30:45.143Z,5.30
2022-11-29T00:33:11.749Z,5.30
2022-11-29T00:35:38.410Z,5.30
2022-11-29T00:38:05.026Z,5.30
2022-11-29T00:40:31.601Z,5.30
2022-11-29T00:42:58.237Z,5.30
2022-11-29T00:45:24.817Z,5.30
2022-11-29T00:47:51.415Z,5.20
2022-11-29T00:50:18.565Z,5.30
2022-11-29T00:52:45.185Z,5.20
2022-11-29T00:55:11.800Z,5.30
2022-11-29T00:57:38.406Z,5.30
2022-11-29T01:00:05.888Z,5.20
2022-11-29T01:02:32.539Z,5.30
2022-11-29T01:04:59.211Z,5.30
2022-11-29T01:07:25.899Z,5.20
2022-11-29T01:09:52.570Z,5.30
2022-11-29T01:12:19.191Z,5.20
2022-11-29T01:14:46.059Z,5.20
2022-11-29T01:17:12.950Z,5.20
2022-11-29T01:19:39.584Z,5.20
2022-11-29T01:22:06.256Z,5.20
2022-11-29T01:24:32.882Z,5.20
2022-11-29T01:26:59.508Z,5.20
2022-11-29T01:29:26.138Z,5.20
2022-11-29T01:31:52.781Z,5.20
2022-11-29T01:34:19.418Z,5.20
2022-11-29T01:36:45.991Z,5.20
2022-11-29T01:39:12.613Z,5.20
2022-11-29T01:41:39.265Z,5.20
2022-11-29T01:44:28.439Z,5.20
2022-11-29T01:46:56.408Z,5.20
2022-11-29T01:49:28.889Z,5.20
2022-11-29T01:52:07.806Z,5.20
2022-11-29T01:54:39.665Z,5.20
2022-11-29T01:57:08.176Z,5.20
2022-11-29T01:59:38.819Z,5.20
2022-11-29T02:02:12.081Z,5.20
2022-11-29T02:04:41.601Z,5.20
2022-11-29T02:07:09.101Z,5.20
2022-11-29T02:09:35.677Z,5.20
2022-11-29T02:12:28.093Z,5.20
2022-11-29T02:15:22.687Z,5.20
2022-11-29T02:18:11.289Z,5.20
2022-11-29T02:21:13.334Z,5.20
2022-11-29T02:23:54.760Z,5.20
2022-11-29T02:27:08.745Z,5.20
2022-11-29T02:29:51.858Z,5.20
2022-11-29T02:32:46.570Z,5.20
2022-11-29T02:35:51.218Z,5.20
2022-11-29T02:38:45.319Z,5.20
2022-11-29T02:41:20.925Z,5.20
2022-11-29T02:44:17.330Z,5.20
2022-11-29T02:47:11.495Z,5.20
2022-11-29T02:49:49.908Z,5.20
2022-11-29T02:52:25.329Z,5.20
2022-11-29T02:55:06.900Z,5.20
2022-11-29T02:58:11.864Z,5.20
2022-11-29T03:00:46.580Z,5.20
2022-11-29T03:03:38.455Z,5.20
2022-11-29T03:06:18.612Z,5.20
2022-11-29T03:09:06.954Z,5.20
2022-11-29T03:11:49.611Z,5.20
2022-11-29T03:14:26.684Z,5.20
2022-11-29T03:17:21.605Z,5.20
2022-11-29T03:19:56.872Z,5.20
2022-11-29T03:22:50.692Z,5.20
2022-11-29T03:25:33.226Z,5.30
2022-11-29T03:28:07.048Z,5.30
2022-11-29T03:30:39.319Z,5.30
2022-11-29T03:33:24.705Z,5.30
2022-11-29T03:36:21.418Z,5.30
2022-11-29T03:38:48.280Z,5.30
2022-11-29T03:41:49.410Z,5.30
2022-11-29T03:44:25.851Z,5.30
2022-11-29T03:47:23.604Z,5.30
2022-11-29T03:49:59.557Z,5.30
2022-11-29T03:52:49.471Z,5.30
2022-11-29T03:55:22.203Z,5.30
2022-11-29T03:58:07.346Z,5.30
2022-11-29T04:00:49.544Z,5.30
2022-11-29T04:03:31.265Z,5.30
2022-11-29T04:06:21.675Z,5.30
2022-11-29T04:09:10.092Z,5.30
2022-11-29T04:11:59.736Z,5.30
2022-11-29T04:14:34.928Z,5.40
2022-11-29T04:17:31.861Z,5.40
2022-11-29T04:20:01.189Z,5.40
2022-11-29T04:23:09.249Z,5.40
2022-11-29T04:26:06.066Z,5.40
2022-11-29T04:29:03.012Z,5.40
2022-11-29T04:31:32.795Z,5.40
2022-11-29T04:34:25.089Z,5.40
2022-11-29T04:37:03.710Z,5.40
2022-11-29T04:39:50.568Z,5.40
2022-11-29T04:42:54.824Z,5.40
2022-11-29T04:45:54.413Z,5.40
2022-11-29T04:48:42.704Z,5.40
2022-11-29T04:51:30.172Z,5.40
2022-11-29T04:54:33.059Z,5.40
2022-11-29T04:57:23.114Z,5.40
2022-11-29T05:00:09.722Z,5.40
2022-11-29T05:02:48.240Z,5.40
2022-11-29T05:05:26.794Z,5.40
2022-11-29T05:08:19.618Z,5.40
2022-11-29T05:11:11.208Z,5.50
2022-11-29T05:14:00.378Z,5.50
2022-11-29T05:16:47.765Z,5.50
2022-11-29T05:19:35.590Z,5.50
2022-11-29T05:22:26.466Z,5.50
2022-11-29T05:24:58.934Z,5.50
2022-11-29T05:28:04.487Z,5.50
2022-11-29T05:30:50.167Z,5.50
2022-11-29T05:33:44.464Z,5.50
2022-11-29T05:36:34.185Z,5.50
2022-11-29T05:39:24.636Z,5.50
2022-11-29T05:42:16.450Z,5.60
2022-11-29T05:45:08.825Z,5.50
2022-11-29T05:48:04.486Z,5.50
2022-11-29T05:50:42.381Z,5.60
2022-11-29T05:53:28.247Z,5.50
2022-11-29T05:56:25.413Z,5.50
2022-11-29T05:59:01.423Z,5.60
2022-11-29T06:01:34.917Z,5.60
2022-11-29T06:04:15.085Z,5.60
2022-11-29T06:06:50.418Z,5.60
2022-11-29T06:09:27.648Z,5.60
2022-11-29T06:12:18.259Z,5.60
2022-11-29T06:14:50.371Z,5.60
2022-11-29T06:17:19.853Z,5.60
2022-11-29T06:20:04.212Z,5.60
2022-11-29T06:22:53.505Z,5.60
2022-11-29T06:25:37.193Z,5.60
2022-11-29T06:28:28.326Z,5.60
2022-11-29T06:31:18.282Z,5.60
2022-11-29T06:34:03.493Z,5.60
2022-11-29T06:36:44.661Z,5.60
2022-11-29T06:39:11.771Z,5.60
2022-11-29T06:41:38.617Z,5.60
2022-11-29T06:44:06.317Z,5.70
2022-11-29T06:46:46.273Z,5.70
2022-11-29T06:49:32.091Z,5.70
2022-11-29T06:52:22.495Z,5.70
2022-11-29T06:55:12.401Z,5.70
2022-11-29T06:57:54.069Z,5.70
2022-11-29T07:00:27.014Z,5.70
2022-11-29T07:03:19.946Z,5.60
2022-11-29T07:05:46.971Z,5.60
2022-11-29T07:08:19.498Z,5.60
2022-11-29T07:10:49.893Z,5.60
2022-11-29T07:13:18.076Z,5.60
2022-11-29T07:16:15.948Z,5.60
2022-11-29T07:18:54.429Z,5.60
2022-11-29T07:21:41.627Z,5.50
2022-11-29T07:24:22.914Z,5.50
2022-11-29T07:26:56.587Z,5.50
2022-11-29T07:29:44.774Z,5.50
2022-11-29T07:32:20.381Z,5.50
2022-11-29T07:35:00.474Z,5.60
2022-11-29T07:37:42.330Z,5.50
2022-11-29T07:40:37.160Z,5.60
2022-11-29T07:43:22.821Z,5.60
2022-11-29T07:45:51.038Z,5.50
2022-11-29T07:48:18.004Z,5.60
2022-11-29T07:50:45.360Z,5.50
2022-11-29T07:53:17.628Z,5.50
2022-11-29T07:55:45.152Z,5.50
2022-11-29T07:58:13.219Z,5.50
2022-11-29T08:00:42.092Z,5.50
2022-11-29T08:03:09.885Z,5.50
2022-11-29T08:05:38.020Z,5.50
2022-11-29T08:08:05.161Z,5.50
2022-11-29T08:10:31.813Z,5.50
2022-11-29T08:12:58.562Z,5.50
2022-11-29T08:15:25.832Z,5.60
2022-11-29T08:17:53.230Z,5.50
2022-11-29T08:20:19.935Z,5.50
2022-11-29T08:22:54.423Z,5.50
2022-11-29T08:25:21.027Z,5.50
2022-11-29T08:27:47.639Z,5.50
2022-11-29T08:30:14.399Z,5.60
2022-11-29T08:32:41.021Z,5.50
2022-11-29T08:35:07.888Z,5.50
2022-11-29T08:37:34.587Z,5.50
2022-11-29T08:40:01.296Z,5.50
2022-11-29T08:42:27.918Z,5.50
2022-11-29T08:44:54.566Z,5.70
2022-11-29T08:47:36.257Z,5.60
2022-11-29T08:50:17.459Z,5.60
2022-11-29T08:53:04.882Z,5.60
2022-11-29T08:55:37.567Z,5.60
2022-11-29T08:58:09.939Z,5.60
2022-11-29T09:00:37.829Z,5.60
2022-11-29T09:03:24.438Z,5.60
2022-11-29T09:05:51.748Z,5.60
2022-11-29T09:08:19.198Z,5.60
2022-11-29T09:10:46.249Z,5.70
2022-11-29T09:13:13.002Z,5.70
2022-11-29T09:15:43.403Z,5.70
2022-11-29T09:18:10.321Z,5.70
2022-11-29T09:20:37.140Z,5.70
2022-11-29T09:23:04.150Z,5.70
2022-11-29T09:25:30.755Z,5.70
2022-11-29T09:28:03.031Z,5.70
2022-11-29T09:30:34.928Z,5.70
2022-11-29T09:33:05.144Z,5.90
2022-11-29T09:35:32.531Z,5.80
2022-11-29T09:37:59.199Z,5.80
2022-11-29T09:40:33.773Z,5.80
2022-11-29T09:43:26.243Z,5.70
2022-11-29T09:46:37.198Z,5.80
2022-11-29T09:49:08.747Z,5.80
2022-11-29T09:51:44.572Z,5.80
2022-11-29T09:54:27.382Z,5.80
2022-11-29T09:56:55.668Z,5.80
2022-11-29T09:59:40.945Z,5.80
2022-11-29T10:02:26.561Z,5.80
2022-11-29T10:05:06.841Z,5.80
2022-11-29T10:07:47.387Z,5.90
2022-11-29T10:10:46.900Z,5.90
2022-11-29T10:13:25.084Z,5.90
2022-11-29T10:16:14.085Z,5.80
2022-11-29T10:18:55.716Z,5.90
2022-11-29T10:21:28.283Z,5.90
2022-11-29T10:24:01.207Z,5.90
2022-11-29T10:26:33.576Z,5.90
2022-11-29T10:29:01.755Z,5.90
2022-11-29T10:31:42.838Z,5.90
2022-11-29T10:34:15.140Z,5.90
2022-11-29T10:36:54.437Z,5.90
2022-11-29T10:39:39.509Z,5.80
2022-11-29T10:42:31.117Z,5.90
2022-11-29T10:44:59.364Z,5.90
2022-11-29T10:47:26.123Z,5.90
2022-11-29T10:49:52.810Z,5.90
2022-11-29T10:52:23.385Z,5.90
2022-11-29T10:54:54.023Z,6.00
2022-11-29T10:57:22.375Z,6.00
2022-11-29T11:00:06.824Z,6.00
2022-11-29T11:02:34.434Z,6.00
2022-11-29T11:05:01.901Z,6.00
2022-11-29T11:07:35.594Z,6.00
2022-11-29T11:10:21.411Z,6.00
2022-11-29T11:13:02.982Z,6.00
2022-11-29T11:15:32.093Z,6.00
2022-11-29T11:18:05.504Z,6.00
2022-11-29T11:20:35.126Z,6.00
2022-11-29T11:23:07.831Z,6.00
2022-11-29T11:25:39.794Z,6.00
2022-11-29T11:28:15.494Z,6.00
2022-11-29T11:30:50.674Z,6.00
2022-11-29T11:33:24.130Z,6.00
2022-11-29T11:36:11.911Z,6.00
2022-11-29T11:38:50.707Z,6.00
2022-11-29T11:41:17.388Z,6.00
2022-11-29T11:43:59.616Z,6.00
2022-11-29T11:46:48.009Z,6.00
2022-11-29T11:49:45.867Z,6.00
2022-11-29T11:52:29.645Z,6.10
2022-11-29T11:55:03.089Z,6.10
2022-11-29T11:57:30.740Z,6.10
2022-11-29T12:00:03.559Z,6.20
2022-11-29T12:02:37.776Z,6.20
2022-11-29T12:05:19.180Z,6.20
2022-11-29T12:08:10.593Z,6.20
2022-11-29T12:10:40.303Z,6.20
2022-11-29T12:13:18.095Z,6.20
2022-11-29T12:15:49.631Z,6.20
2022-11-29T12:18:42.106Z,6.20
2022-11-29T12:21:17.666Z,6.20
2022-11-29T12:23:52.547Z,6.20
2022-11-29T12:26:55.893Z,6.20
2022-11-29T12:29:17.879Z,6.20
2022-11-29T12:31:44.473Z,6.30
2022-11-29T12:34:31.459Z,6.30
2022-11-29T12:37:04.158Z,6.40
2022-11-29T12:40:09.139Z,6.40
2022-11-29T12:43:15.225Z,6.50
2022-11-29T12:46:03.567Z,6.50
2022-11-29T12:48:49.614Z,6.50
2022-11-29T12:51:31.800Z,6.50
2022-11-29T12:54:20.005Z,6.50
2022-11-29T12:57:07.951Z,6.60
2022-11-29T12:59:49.922Z,6.60
2022-11-29T13:02:41.219Z,6.70
2022-11-29T13:05:39.159Z,6.60
2022-11-29T13:08:20.699Z,6.60
2022-11-29T13:11:16.004Z,6.60
2022-11-29T13:14:41.106Z,6.60
2022-11-29T13:17:01.572Z,6.60
2022-11-29T13:19:43.441Z,6.70
2022-11-29T13:22:28.870Z,6.70
2022-11-29T13:25:03.633Z,6.60
2022-11-29T13:27:39.917Z,6.70
2022-11-29T13:30:07.535Z,6.80
2022-11-29T13:32:35.780Z,6.80
2022-11-29T13:35:15.308Z,6.80
2022-11-29T13:37:55.196Z,6.80
2022-11-29T13:40:30.145Z,6.80
2022-11-29T13:43:18.080Z,6.80
2022-11-29T13:46:09.304Z,6.70
2022-11-29T13:48:48.241Z,6.70
2022-11-29T13:51:25.667Z,6.70
2022-11-29T13:53:54.293Z,6.70
2022-11-29T13:56:43.192Z,6.80
2022-11-29T13:59:18.959Z,6.80
2022-11-29T14:01:48.372Z,6.90
2022-11-29T14:04:28.163Z,6.90
2022-11-29T14:07:05.461Z,6.90
2022-11-29T14:09:45.727Z,6.90
2022-11-29T14:12:37.006Z,6.90
2022-11-29T14:15:16.332Z,6.90
2022-11-29T14:17:47.828Z,6.80
2022-11-29T14:20:23.512Z,6.80
2022-11-29T14:23:05.202Z,6.80
2022-11-29T14:25:51.239Z,6.80
2022-11-29T14:28:18.466Z,6.80
2022-11-29T14:30:54.865Z,6.80
2022-11-29T14:33:29.029Z,6.80
2022-11-29T14:36:19.612Z,6.80
2022-11-29T14:39:12.434Z,6.80
2022-11-29T14:41:50.945Z,6.80
2022-11-29T14:44:25.968Z,6.80
2022-11-29T14:47:13.684Z,6.90
2022-11-29T14:49:43.276Z,6.90
2022-11-29T14:52:15.620Z,6.90
2022-11-29T14:55:00.476Z,6.80
2022-11-29T14:57:53.531Z,6.80
2022-11-29T15:00:30.423Z,6.80
2022-11-29T15:03:15.515Z,6.70
2022-11-29T15:05:49.998Z,6.70
2022-11-29T15:08:32.516Z,6.70
2022-11-29T15:11:11.003Z,6.70
2022-11-29T15:13:44.282Z,6.70
2022-11-29T15:16:31.396Z,6.70
2022-11-29T15:19:41.916Z,6.70
2022-11-29T15:22:22.531Z,6.70
2022-11-29T15:24:57.807Z,6.70
2022-11-29T15:27:24.620Z,6.60
2022-11-29T15:29:52.302Z,6.60
2022-11-29T15:32:25.602Z,6.60
2022-11-29T15:34:54.903Z,6.70
2022-11-29T15:37:40.037Z,6.70
2022-11-29T15:40:18.586Z,6.70
2022-11-29T15:43:15.232Z,6.70
2022-11-29T15:45:48.084Z,6.70
2022-11-29T15:48:26.723Z,6.70
2022-11-29T15:51:14.423Z,6.70
2022-11-29T15:54:00.405Z,6.70
2022-11-29T15:56:49.567Z,6.60
2022-11-29T15:59:34.511Z,6.60
2022-11-29T16:02:13.248Z,6.60
2022-11-29T16:04:46.499Z,6.70
2022-11-29T16:07:14.751Z,6.70
2022-11-29T16:09:45.236Z,6.60
2022-11-29T16:12:15.771Z,6.70
2022-11-29T16:14:57.032Z,6.70
2022-11-29T16:17:35.128Z,6.70
2022-11-29T16:20:13.888Z,6.70
2022-11-29T16:22:40.519Z,6.70
2022-11-29T16:25:15.994Z,6.70
2022-11-29T16:27:43.386Z,6.70
2022-11-29T16:30:22.051Z,6.70
2022-11-29T16:33:16.427Z,6.70
2022-11-29T16:35:43.080Z,6.70
2022-11-29T16:38:21.578Z,6.70
2022-11-29T16:41:20.183Z,6.70
2022-11-29T16:43:55.938Z,6.60
2022-11-29T16:46:22.564Z,6.60
2022-11-29T16:48:50.185Z,6.60
2022-11-29T16:51:32.164Z,6.60
2022-11-29T16:54:21.171Z,6.70
2022-11-29T16:56:48.802Z,6.70
2022-11-29T16:59:20.971Z,6.70
2022-11-29T17:01:55.175Z,6.70
2022-11-29T17:04:23.492Z,6.60
2022-11-29T17:06:55.399Z,6.60
2022-11-29T17:09:30.754Z,6.60
2022-11-29T17:12:00.909Z,6.60
2022-11-29T17:14:28.630Z,6.60
2022-11-29T17:16:55.649Z,6.60
2022-11-29T17:19:23.557Z,6.60
2022-11-29T17:21:51.305Z,6.60
2022-11-29T17:24:20.270Z,6.60
2022-11-29T17:26:46.974Z,6.60
2022-11-29T17:29:15.220Z,6.60
2022-11-29T17:31:44.492Z,6.60
2022-11-29T17:34:11.537Z,6.70
2022-11-29T17:36:38.490Z,6.70
2022-11-29T17:39:05.694Z,6.60
2022-11-29T17:41:32.999Z,6.60
2022-11-29T17:44:00.410Z,6.50
2022-11-29T17:46:30.037Z,6.50
2022-11-29T17:48:59.663Z,6.50
2022-11-29T17:51:51.286Z,6.50
2022-11-29T17:54:13.264Z,6.50
2022-11-29T17:56:39.884Z,6.50
2022-11-29T17:59:06.579Z,6.50
2022-11-29T18:01:34.689Z,6.50
2022-11-29T18:04:03.101Z,6.50
2022-11-29T18:06:34.313Z,6.50
2022-11-29T18:09:02.321Z,6.50
2022-11-29T18:11:44.969Z,6.40
2022-11-29T18:14:16.366Z,6.40
2022-11-29T18:16:45.120Z,6.40
2022-11-29T18:19:14.316Z,6.40
2022-11-29T18:21:41.028Z,6.40
2022-11-29T18:24:08.427Z,6.40
2022-11-29T18:26:36.239Z,6.40
2022-11-29T18:29:03.611Z,6.30
2022-11-29T18:31:32.179Z,6.30
2022-11-29T18:34:00.917Z,6.30
2022-11-29T18:36:33.449Z,6.30
2022-11-29T18:39:03.492Z,6.30
2022-11-29T18:41:31.523Z,6.30
2022-11-29T18:44:18.261Z,6.30
2022-11-29T18:46:45.594Z,6.30
2022-11-29T18:49:15.413Z,6.30
2022-11-29T18:51:44.356Z,6.30
2022-11-29T18:54:11.822Z,6.30
2022-11-29T18:56:41.490Z,6.30
2022-11-29T18:59:17.042Z,6.30
2022-11-29T19:01:45.838Z,6.30
2022-11-29T19:04:21.665Z,6.30
2022-11-29T19:06:48.852Z,6.40
2022-11-29T19:09:20.803Z,6.40
2022-11-29T19:11:49.325Z,6.40
2022-11-29T19:14:16.013Z,6.40
2022-11-29T19:16:44.889Z,6.40
2022-11-29T19:19:12.031Z,6.40
2022-11-29T19:21:39.819Z,6.40
2022-11-29T19:24:13.496Z,6.50
2022-11-29T19:26:41.201Z,6.50
2022-11-29T19:29:07.819Z,6.50
2022-11-29T19:31:34.413Z,6.50
2022-11-29T19:34:01.083Z,6.50
2022-11-29T19:36:30.196Z,6.50
2022-11-29T19:38:57.849Z,6.40
2022-11-29T19:41:27.940Z,6.40
2022-11-29T19:43:57.355Z,6.40
2022-11-29T19:46:26.809Z,6.50
2022-11-29T19:48:55.265Z,6.50
2022-11-29T19:51:23.617Z,6.50
2022-11-29T19:53:55.765Z,6.50
2022-11-29T19:56:23.380Z,6.50
2022-11-29T19:58:50.772Z,6.50
2022-11-29T20:01:27.976Z,6.50
2022-11-29T20:03:58.593Z,6.50
2022-11-29T20:06:30.005Z,6.50
2022-11-29T20:08:57.271Z,6.60
2022-11-29T20:11:25.173Z,6.60
2022-11-29T20:13:55.037Z,6.60
2022-11-29T20:16:22.196Z,6.60
2022-11-29T20:18:51.321Z,6.60
2022-11-29T20:21:23.641Z,6.60
2022-11-29T20:23:56.151Z,6.60
2022-11-29T20:26:23.682Z,6.50
2022-11-29T20:28:50.456Z,6.50
2022-11-29T20:31:21.232Z,6.50
2022-11-29T20:33:48.736Z,6.50
2022-11-29T20:36:43.453Z,6.40
2022-11-29T20:39:21.849Z,6.40
2022-11-29T20:42:16.357Z,6.40
2022-11-29T20:44:54.200Z,6.40
2022-11-29T20:47:23.331Z,6.40
2022-11-29T20:49:50.611Z,6.40
2022-11-29T20:52:41.417Z,6.40
2022-11-29T20:55:08.479Z,6.50
2022-11-29T20:57:38.111Z,6.50
2022-11-29T21:00:11.163Z,6.40
2022-11-29T21:02:38.008Z,6.40
2022-11-29T21:05:05.738Z,6.40
2022-11-29T21:07:32.387Z,6.40
2022-11-29T21:10:01.324Z,6.40
2022-11-29T21:12:29.766Z,6.40
2022-11-29T21:14:57.011Z,6.30
2022-11-29T21:17:27.561Z,6.30
2022-11-29T21:19:58.715Z,6.30
2022-11-29T21:22:42.569Z,6.30
2022-11-29T21:25:26.568Z,6.30
2022-11-29T21:27:55.212Z,6.30
2022-11-29T21:30:24.713Z,6.30
2022-11-29T21:32:52.461Z,6.20
2022-11-29T21:35:19.499Z,6.20
2022-11-29T21:37:46.359Z,6.30
2022-11-29T21:40:14.517Z,6.30
2022-11-29T21:42:41.206Z,6.30
2022-11-29T21:45:14.814Z,6.30
2022-11-29T21:47:43.850Z,6.30
2022-11-29T21:50:11.694Z,6.30
2022-11-29T21:52:38.291Z,6.30
2022-11-29T21:55:05.447Z,6.30
2022-11-29T21:57:32.093Z,6.30
2022-11-29T21:59:58.681Z,6.30
2022-11-29T22:02:25.312Z,6.30
2022-11-29T22:04:52.012Z,6.30
2022-11-29T22:07:18.689Z,6.40
2022-11-29T22:09:45.324Z,6.40
2022-11-29T22:12:32.413Z,6.40
2022-11-29T22:14:58.650Z,6.40
2022-11-29T22:17:25.280Z,6.40
2022-11-29T22:19:51.933Z,6.50
2022-11-29T22:22:18.535Z,6.50
2022-11-29T22:24:45.441Z,6.50
2022-11-29T22:27:12.289Z,6.50
2022-11-29T22:29:38.898Z,6.50
2022-11-29T22:32:06.148Z,6.50
2022-11-29T22:34:32.707Z,6.50
2022-11-29T22:36:59.289Z,6.50
2022-11-29T22:39:26.237Z,6.50
2022-11-29T22:41:55.071Z,6.50
2022-11-29T22:44:23.455Z,6.50
2022-11-29T22:46:50.316Z,6.50
2022-11-29T22:49:16.945Z,6.50
2022-11-29T22:51:43.759Z,6.50
2022-11-29T22:54:16.246Z,6.50
2022-11-29T22:56:44.454Z,6.50
2022-11-29T22:59:11.151Z,6.50
2022-11-29T23:01:39.842Z,6.50
2022-11-29T23:04:08.042Z,6.50
2022-11-29T23:06:43.642Z,6.50
2022-11-29T23:09:19.726Z,6.50
2022-11-29T23:11:50.849Z,6.50
2022-11-29T23:14:18.109Z,6.50
2022-11-29T23:16:44.771Z,6.50
2022-11-29T23:19:11.646Z,6.50
2022-11-29T23:21:40.153Z,6.40
2022-11-29T23:24:07.609Z,6.40
2022-11-29T23:26:39.314Z,6.40
2022-11-29T23:29:13.175Z,6.40
2022-11-29T23:31:40.575Z,6.40
2022-11-29T23:34:07.827Z,6.40
2022-11-29T23:36:34.550Z,6.40
2022-11-29T23:39:01.160Z,6.40
2022-11-29T23:41:27.875Z,6.40
2022-11-29T23:43:54.635Z,6.40
2022-11-29T23:46:23.613Z,6.40
2022-11-29T23:48:50.629Z,6.40
2022-11-29T23:51:18.103Z,6.40
2022-11-29T23:53:44.971Z,6.40
2022-11-29T23:56:16.897Z,6.40
2022-11-29T23:58:44.370Z,6.40
